York, Pennsylvania
Current Conditions -  °F | °C
As of 5:53 PM on Tuesday 27 Jan 2015 (Local Time) from KTHV Reporting Station
Clear Clear  
Wind Chill: 15°   Ceiling: Unl
Heat Index: 27°   Visibility: 10mi
Dew Point: 17°   Wind: 16mph
Humidity: 66%   Direction: 310°NW
Pressure: 29.82"   Gusts: NA
Location:  39.96°N, 76.72°W
Report Text: KTHV 272253Z AUTO 31014KT 10SM CLR M03/M08 A2982 RMK AO2 SLP107 T10281083
Loading
Personal Weather Stations






























Interactive Weather Map New forecast layout! Learn more

10-Day Weather Forecast

Advertisements
Track Severe Weather on mobile